KMKE/MKE METAR and TAF weather

Enter ICAO airport designator
Station Type Date Time Source
KMKE METAR 2019/12/08 06:52 UTC NOAA

KMKE 080652Z 20013KT 10SM SCT200 BKN250 02/M03 A3003 RMK AO2 SLP175 T00221033


Station Type Date Time Source
KMKE Decoded METAR 2019/12/08 06:52 UTC NOAA

GEN MITCHELL INTERNATIONAL AIRPORT, WI, United States (KMKE) 42-57N 87-54W 206M
Dec 08, 2019 - 01:52 AM EST / 2019.12.08 0652 UTC
Wind: from the SSW (200 degrees) at 15 MPH (13 KT):0
Visibility: 10 mile(s):0
Sky conditions: mostly cloudy
Temperature: 36.0 F (2.2 C)
Dew Point: 26.1 F (-3.3 C)
Relative Humidity: 66%
Pressure (altimeter): 30.03 in. Hg (1016 hPa)
ob: KMKE 080652Z 20013KT 10SM SCT200 BKN250 02/M03 A3003 RMK AO2 SLP175 T00221033
cycle: 7

Station Type Date Time Source
KMKE TAF 2019/12/08 06:33 UTC NOAA

TAF KMKE 080531Z 0806/0912 20012G21KT P6SM BKN200 WS015/21045KT
FM080800 20015G25KT P6SM BKN200 WS020/21050KT
FM081400 21015G24KT P6SM BKN050
FM082100 22010KT P6SM OVC029
FM090400 VRB03KT P6SM OVC007
FM090600 06005KT 4SM -DZ BR OVC003

Example: see airport list